sensor_id;sensor_type;location;lat;lon;timestamp;pressure;altitude;pressure_sealevel;temperature;humidity
11343;BME280;5726;42.160;24.746;2023-04-01T00:00:29;98713.78;;;15.14;65.13
11343;BME280;5726;42.160;24.746;2023-04-01T00:02:54;98716.34;;;15.11;65.35
11343;BME280;5726;42.160;24.746;2023-04-01T00:05:20;98704.47;;;15.24;64.51
11343;BME280;5726;42.160;24.746;2023-04-01T00:07:46;98695.34;;;15.40;63.65
11343;BME280;5726;42.160;24.746;2023-04-01T00:10:12;98691.75;;;15.24;64.27
11343;BME280;5726;42.160;24.746;2023-04-01T00:12:39;98695.31;;;15.16;65.01
11343;BME280;5726;42.160;24.746;2023-04-01T00:15:06;98701.81;;;15.03;65.63
11343;BME280;5726;42.160;24.746;2023-04-01T00:17:34;98695.66;;;15.03;65.88
11343;BME280;5726;42.160;24.746;2023-04-01T00:20:00;98697.34;;;15.07;65.24
11343;BME280;5726;42.160;24.746;2023-04-01T00:22:26;98698.59;;;15.10;65.26
11343;BME280;5726;42.160;24.746;2023-04-01T00:24:53;98708.38;;;15.14;64.97
11343;BME280;5726;42.160;24.746;2023-04-01T00:27:19;98710.75;;;15.16;64.43
11343;BME280;5726;42.160;24.746;2023-04-01T00:29:46;98710.09;;;15.19;64.24
11343;BME280;5726;42.160;24.746;2023-04-01T00:32:13;98714.47;;;15.23;63.59
11343;BME280;5726;42.160;24.746;2023-04-01T00:34:40;98711.75;;;15.23;63.11
11343;BME280;5726;42.160;24.746;2023-04-01T00:37:09;98709.19;;;15.27;62.89
11343;BME280;5726;42.160;24.746;2023-04-01T00:39:35;98709.72;;;15.32;62.08
11343;BME280;5726;42.160;24.746;2023-04-01T00:42:02;98718.31;;;15.34;61.18
11343;BME280;5726;42.160;24.746;2023-04-01T00:44:32;98714.34;;;15.20;62.01
11343;BME280;5726;42.160;24.746;2023-04-01T00:46:59;98709.94;;;15.15;62.25
11343;BME280;5726;42.160;24.746;2023-04-01T00:49:37;98705.44;;;15.07;62.78
11343;BME280;5726;42.160;24.746;2023-04-01T00:52:06;98705.22;;;15.12;62.39
11343;BME280;5726;42.160;24.746;2023-04-01T00:54:33;98707.41;;;15.19;61.94
11343;BME280;5726;42.160;24.746;2023-04-01T00:57:10;98702.75;;;15.07;62.17
11343;BME280;5726;42.160;24.746;2023-04-01T00:59:42;98697.13;;;15.24;61.58
11343;BME280;5726;42.160;24.746;2023-04-01T01:02:10;98695.00;;;15.18;62.02
11343;BME280;5726;42.160;24.746;2023-04-01T01:04:36;98687.69;;;15.18;61.55
11343;BME280;5726;42.160;24.746;2023-04-01T01:10:23;98695.78;;;15.30;61.13
11343;BME280;5726;42.160;24.746;2023-04-01T01:13:11;98702.84;;;14.99;62.68
11343;BME280;5726;42.160;24.746;2023-04-01T01:15:52;98698.91;;;14.96;62.91
11343;BME280;5726;42.160;24.746;2023-04-01T01:18:42;98700.50;;;15.33;61.47
11343;BME280;5726;42.160;24.746;2023-04-01T01:31:54;98698.03;;;14.60;64.30
11343;BME280;5726;42.160;24.746;2023-04-01T01:37:15;98680.44;;;14.86;62.96
11343;BME280;5726;42.160;24.746;2023-04-01T01:39:43;98686.44;;;15.04;61.91
11343;BME280;5726;42.160;24.746;2023-04-01T01:42:13;98682.03;;;14.87;62.23
11343;BME280;5726;42.160;24.746;2023-04-01T01:44:42;98680.00;;;14.73;63.42
11343;BME280;5726;42.160;24.746;2023-04-01T01:47:10;98679.66;;;14.86;62.55
11343;BME280;5726;42.160;24.746;2023-04-01T01:49:38;98672.03;;;14.88;62.65
11343;BME280;5726;42.160;24.746;2023-04-01T01:52:04;98664.47;;;14.70;63.81
11343;BME280;5726;42.160;24.746;2023-04-01T01:54:30;98663.81;;;14.73;63.39
11343;BME280;5726;42.160;24.746;2023-04-01T01:57:04;98655.91;;;14.68;63.94
11343;BME280;5726;42.160;24.746;2023-04-01T01:59:33;98648.72;;;14.60;64.32
11343;BME280;5726;42.160;24.746;2023-04-01T02:02:01;98647.81;;;14.80;64.45
11343;BME280;5726;42.160;24.746;2023-04-01T02:04:34;98640.53;;;14.68;64.86
11343;BME280;5726;42.160;24.746;2023-04-01T02:07:04;98641.94;;;14.42;66.31
11343;BME280;5726;42.160;24.746;2023-04-01T02:09:32;98646.06;;;14.39;67.82
11343;BME280;5726;42.160;24.746;2023-04-01T02:12:02;98644.81;;;13.84;71.21
11343;BME280;5726;42.160;24.746;2023-04-01T02:14:52;98643.19;;;14.12;70.70
11343;BME280;5726;42.160;24.746;2023-04-01T02:17:22;98650.34;;;14.08;70.80
11343;BME280;5726;42.160;24.746;2023-04-01T02:20:11;98657.00;;;14.11;70.80
11343;BME280;5726;42.160;24.746;2023-04-01T02:22:51;98663.72;;;14.05;71.27
11343;BME280;5726;42.160;24.746;2023-04-01T02:25:27;98667.19;;;14.05;71.44
11343;BME280;5726;42.160;24.746;2023-04-01T02:27:54;98672.88;;;14.24;70.71
11343;BME280;5726;42.160;24.746;2023-04-01T02:30:21;98655.34;;;14.18;70.82
11343;BME280;5726;42.160;24.746;2023-04-01T02:32:49;98659.63;;;14.19;71.06
11343;BME280;5726;42.160;24.746;2023-04-01T02:35:16;98653.56;;;14.22;70.47
11343;BME280;5726;42.160;24.746;2023-04-01T02:37:42;98643.56;;;14.23;70.36
11343;BME280;5726;42.160;24.746;2023-04-01T02:40:11;98628.81;;;14.20;70.47
11343;BME280;5726;42.160;24.746;2023-04-01T02:42:37;98631.06;;;14.18;70.49
11343;BME280;5726;42.160;24.746;2023-04-01T02:45:03;98638.16;;;14.02;71.74
11343;BME280;5726;42.160;24.746;2023-04-01T02:47:29;98645.28;;;14.07;71.29
11343;BME280;5726;42.160;24.746;2023-04-01T02:49:55;98649.44;;;14.04;70.99
11343;BME280;5726;42.160;24.746;2023-04-01T02:52:24;98658.56;;;13.91;72.20
11343;BME280;5726;42.160;24.746;2023-04-01T02:54:50;98644.22;;;13.99;71.27
11343;BME280;5726;42.160;24.746;2023-04-01T02:57:15;98636.22;;;13.91;71.53
11343;BME280;5726;42.160;24.746;2023-04-01T02:59:41;98631.56;;;13.59;72.35
11343;BME280;5726;42.160;24.746;2023-04-01T03:02:06;98629.25;;;13.70;72.11
11343;BME280;5726;42.160;24.746;2023-04-01T03:04:32;98637.56;;;13.85;71.51
11343;BME280;5726;42.160;24.746;2023-04-01T03:06:57;98640.81;;;13.90;71.28
11343;BME280;5726;42.160;24.746;2023-04-01T03:09:23;98638.72;;;13.96;70.00
11343;BME280;5726;42.160;24.746;2023-04-01T03:11:48;98636.13;;;13.67;70.92
11343;BME280;5726;42.160;24.746;2023-04-01T03:14:14;98634.59;;;13.58;71.86
11343;BME280;5726;42.160;24.746;2023-04-01T03:16:39;98644.63;;;13.49;72.17
11343;BME280;5726;42.160;24.746;2023-04-01T03:19:05;98650.03;;;13.49;72.28
11343;BME280;5726;42.160;24.746;2023-04-01T03:21:30;98650.28;;;13.36;72.79
11343;BME280;5726;42.160;24.746;2023-04-01T03:23:57;98622.19;;;13.45;72.47
11343;BME280;5726;42.160;24.746;2023-04-01T03:26:22;98617.91;;;13.44;72.06
11343;BME280;5726;42.160;24.746;2023-04-01T03:28:48;98622.00;;;13.01;74.65
11343;BME280;5726;42.160;24.746;2023-04-01T03:31:13;98619.81;;;12.94;75.35
11343;BME280;5726;42.160;24.746;2023-04-01T03:33:41;98619.09;;;12.86;76.23
11343;BME280;5726;42.160;24.746;2023-04-01T03:36:07;98623.56;;;12.65;77.75
11343;BME280;5726;42.160;24.746;2023-04-01T03:38:34;98608.72;;;12.59;78.28
11343;BME280;5726;42.160;24.746;2023-04-01T03:41:00;98613.28;;;12.21;81.39
11343;BME280;5726;42.160;24.746;2023-04-01T03:43:26;98610.47;;;12.09;81.96
11343;BME280;5726;42.160;24.746;2023-04-01T03:45:52;98605.13;;;12.01;82.03
11343;BME280;5726;42.160;24.746;2023-04-01T03:48:18;98604.31;;;12.00;82.30
11343;BME280;5726;42.160;24.746;2023-04-01T03:50:44;98607.50;;;11.94;82.40
11343;BME280;5726;42.160;24.746;2023-04-01T03:53:10;98611.72;;;12.03;81.72
11343;BME280;5726;42.160;24.746;2023-04-01T03:55:36;98600.22;;;11.94;81.26
11343;BME280;5726;42.160;24.746;2023-04-01T03:58:02;98600.53;;;11.93;81.26
11343;BME280;5726;42.160;24.746;2023-04-01T04:00:29;98607.03;;;11.84;82.47
11343;BME280;5726;42.160;24.746;2023-04-01T04:02:55;98597.69;;;11.81;82.58
11343;BME280;5726;42.160;24.746;2023-04-01T04:05:22;98599.94;;;11.79;82.89
11343;BME280;5726;42.160;24.746;2023-04-01T04:07:47;98601.94;;;11.99;81.66
11343;BME280;5726;42.160;24.746;2023-04-01T04:10:13;98598.59;;;12.10;81.52
11343;BME280;5726;42.160;24.746;2023-04-01T04:12:38;98595.28;;;12.13;81.07
11343;BME280;5726;42.160;24.746;2023-04-01T04:15:06;98597.66;;;12.06;82.37
11343;BME280;5726;42.160;24.746;2023-04-01T04:17:31;98589.91;;;12.05;82.66
11343;BME280;5726;42.160;24.746;2023-04-01T04:19:57;98591.38;;;12.02;82.67
11343;BME280;5726;42.160;24.746;2023-04-01T04:22:22;98599.38;;;12.19;81.96
11343;BME280;5726;42.160;24.746;2023-04-01T04:24:47;98604.09;;;12.22;82.37
11343;BME280;5726;42.160;24.746;2023-04-01T04:27:13;98603.78;;;12.32;81.25
11343;BME280;5726;42.160;24.746;2023-04-01T04:29:38;98620.06;;;12.64;82.18
11343;BME280;5726;42.160;24.746;2023-04-01T04:32:05;98605.31;;;12.87;79.97
11343;BME280;5726;42.160;24.746;2023-04-01T04:34:31;98596.16;;;13.08;76.96
11343;BME280;5726;42.160;24.746;2023-04-01T04:36:56;98597.53;;;13.14;75.87
11343;BME280;5726;42.160;24.746;2023-04-01T04:39:22;98598.28;;;13.23;77.08
11343;BME280;5726;42.160;24.746;2023-04-01T04:41:47;98602.94;;;13.55;75.83
11343;BME280;5726;42.160;24.746;2023-04-01T04:44:13;98602.97;;;14.07;72.33
11343;BME280;5726;42.160;24.746;2023-04-01T04:46:38;98601.25;;;14.47;69.63
11343;BME280;5726;42.160;24.746;2023-04-01T04:49:05;98610.84;;;14.56;68.13
11343;BME280;5726;42.160;24.746;2023-04-01T04:51:30;98607.75;;;14.34;68.94
11343;BME280;5726;42.160;24.746;2023-04-01T04:53:59;98607.75;;;14.34;68.40
11343;BME280;5726;42.160;24.746;2023-04-01T04:56:24;98611.50;;;14.09;70.31
11343;BME280;5726;42.160;24.746;2023-04-01T04:58:51;98612.66;;;14.20;70.24
11343;BME280;5726;42.160;24.746;2023-04-01T05:01:18;98608.38;;;14.07;70.82
11343;BME280;5726;42.160;24.746;2023-04-01T05:03:44;98606.81;;;13.98;71.96
11343;BME280;5726;42.160;24.746;2023-04-01T05:06:12;98604.72;;;14.03;71.68
11343;BME280;5726;42.160;24.746;2023-04-01T05:08:38;98606.59;;;14.23;70.65
11343;BME280;5726;42.160;24.746;2023-04-01T05:11:07;98607.97;;;14.29;70.31
11343;BME280;5726;42.160;24.746;2023-04-01T05:13:35;98610.31;;;14.31;68.43
11343;BME280;5726;42.160;24.746;2023-04-01T05:16:00;98613.09;;;14.10;68.52
11343;BME280;5726;42.160;24.746;2023-04-01T05:18:26;98604.19;;;14.10;68.17
11343;BME280;5726;42.160;24.746;2023-04-01T05:20:53;98603.59;;;14.04;68.59
11343;BME280;5726;42.160;24.746;2023-04-01T05:23:19;98595.34;;;14.09;71.44
11343;BME280;5726;42.160;24.746;2023-04-01T05:25:47;98594.31;;;14.58;80.69
11343;BME280;5726;42.160;24.746;2023-04-01T05:28:12;98599.16;;;15.00;76.80
11343;BME280;5726;42.160;24.746;2023-04-01T05:33:26;98603.41;;;15.25;68.62
11343;BME280;5726;42.160;24.746;2023-04-01T05:35:52;98601.50;;;15.25;65.65
11343;BME280;5726;42.160;24.746;2023-04-01T05:38:18;98587.38;;;15.43;64.88
11343;BME280;5726;42.160;24.746;2023-04-01T05:40:43;98585.66;;;15.63;61.04
11343;BME280;5726;42.160;24.746;2023-04-01T05:43:09;98571.59;;;15.57;63.47
11343;BME280;5726;42.160;24.746;2023-04-01T05:45:34;98559.78;;;15.50;72.46
11343;BME280;5726;42.160;24.746;2023-04-01T05:48:00;98565.31;;;15.53;73.18
11343;BME280;5726;42.160;24.746;2023-04-01T05:50:25;98542.72;;;15.46;68.01
11343;BME280;5726;42.160;24.746;2023-04-01T05:52:52;98547.13;;;15.38;66.01
11343;BME280;5726;42.160;24.746;2023-04-01T05:55:18;98550.34;;;15.44;67.02
11343;BME280;5726;42.160;24.746;2023-04-01T05:57:45;98544.00;;;15.64;63.97
11343;BME280;5726;42.160;24.746;2023-04-01T06:00:12;98526.78;;;15.56;62.03
11343;BME280;5726;42.160;24.746;2023-04-01T06:02:38;98526.91;;;15.09;65.38
11343;BME280;5726;42.160;24.746;2023-04-01T06:05:12;98533.69;;;15.03;66.61
11343;BME280;5726;42.160;24.746;2023-04-01T06:07:38;98527.72;;;14.85;66.14
11343;BME280;5726;42.160;24.746;2023-04-01T06:10:12;98542.03;;;14.98;66.88
11343;BME280;5726;42.160;24.746;2023-04-01T06:12:49;98544.00;;;15.13;66.60
11343;BME280;5726;42.160;24.746;2023-04-01T06:24:24;98506.41;;;14.45;69.86
11343;BME280;5726;42.160;24.746;2023-04-01T06:54:53;98507.31;;;14.49;74.35
11343;BME280;5726;42.160;24.746;2023-04-01T06:57:29;98514.06;;;14.43;74.02
11343;BME280;5726;42.160;24.746;2023-04-01T06:59:59;98520.56;;;14.54;74.02
11343;BME280;5726;42.160;24.746;2023-04-01T07:02:28;98524.38;;;14.77;72.55
11343;BME280;5726;42.160;24.746;2023-04-01T07:04:58;98520.78;;;14.73;72.32
11343;BME280;5726;42.160;24.746;2023-04-01T07:07:41;98518.53;;;14.63;73.98
11343;BME280;5726;42.160;24.746;2023-04-01T07:10:17;98505.28;;;14.70;73.63
11343;BME280;5726;42.160;24.746;2023-04-01T07:12:48;98488.84;;;14.75;73.78
11343;BME280;5726;42.160;24.746;2023-04-01T07:15:23;98479.66;;;14.76;73.09
11343;BME280;5726;42.160;24.746;2023-04-01T07:17:55;98490.22;;;14.69;74.52
11343;BME280;5726;42.160;24.746;2023-04-01T07:20:29;98498.31;;;14.57;75.63
11343;BME280;5726;42.160;24.746;2023-04-01T07:22:58;98491.22;;;14.76;74.58
11343;BME280;5726;42.160;24.746;2023-04-01T07:25:28;98475.44;;;14.90;74.22
11343;BME280;5726;42.160;24.746;2023-04-01T07:28:06;98472.75;;;14.90;73.87
11343;BME280;5726;42.160;24.746;2023-04-01T07:33:52;98462.25;;;14.49;76.44
11343;BME280;5726;42.160;24.746;2023-04-01T07:36:47;98462.47;;;14.44;77.73
11343;BME280;5726;42.160;24.746;2023-04-01T07:42:44;98464.53;;;14.86;76.92
11343;BME280;5726;42.160;24.746;2023-04-01T07:53:43;98469.31;;;14.66;76.88
11343;BME280;5726;42.160;24.746;2023-04-01T07:56:51;98467.50;;;14.82;75.56
11343;BME280;5726;42.160;24.746;2023-04-01T08:07:18;98445.16;;;15.08;77.59
11343;BME280;5726;42.160;24.746;2023-04-01T08:12:38;98441.13;;;15.02;75.52
11343;BME280;5726;42.160;24.746;2023-04-01T08:17:58;98428.16;;;15.08;76.26
11343;BME280;5726;42.160;24.746;2023-04-01T08:20:42;98420.38;;;15.06;75.96
11343;BME280;5726;42.160;24.746;2023-04-01T08:23:16;98415.19;;;15.13;75.58
11343;BME280;5726;42.160;24.746;2023-04-01T08:33:36;98394.91;;;15.31;73.83
11343;BME280;5726;42.160;24.746;2023-04-01T08:36:31;98402.72;;;15.36;73.85
11343;BME280;5726;42.160;24.746;2023-04-01T08:39:06;98385.72;;;15.20;75.18
11343;BME280;5726;42.160;24.746;2023-04-01T08:47:46;98378.28;;;15.44;73.21
11343;BME280;5726;42.160;24.746;2023-04-01T09:08:02;98343.50;;;15.74;72.43
11343;BME280;5726;42.160;24.746;2023-04-01T09:10:56;98327.53;;;15.84;71.35
11343;BME280;5726;42.160;24.746;2023-04-01T09:25:06;98291.34;;;15.88;70.52
11343;BME280;5726;42.160;24.746;2023-04-01T09:39:10;98278.75;;;16.11;70.23
11343;BME280;5726;42.160;24.746;2023-04-01T09:44:36;98282.28;;;16.15;70.04
11343;BME280;5726;42.160;24.746;2023-04-01T09:47:21;98276.28;;;16.22;69.72
11343;BME280;5726;42.160;24.746;2023-04-01T09:50:00;98285.22;;;16.41;68.24
11343;BME280;5726;42.160;24.746;2023-04-01T10:23:30;98199.75;;;17.22;63.11
11343;BME280;5726;42.160;24.746;2023-04-01T10:28:44;98184.34;;;17.26;64.90
11343;BME280;5726;42.160;24.746;2023-04-01T10:39:56;98186.97;;;17.45;62.73
11343;BME280;5726;42.160;24.746;2023-04-01T10:51:04;98114.69;;;18.14;65.77
11343;BME280;5726;42.160;24.746;2023-04-01T11:27:38;98063.84;;;20.32;53.34
11343;BME280;5726;42.160;24.746;2023-04-01T11:30:25;98068.50;;;20.49;52.36
11343;BME280;5726;42.160;24.746;2023-04-01T11:36:20;98050.59;;;20.34;51.43
11343;BME280;5726;42.160;24.746;2023-04-01T11:39:01;98046.19;;;19.84;53.76
11343;BME280;5726;42.160;24.746;2023-04-01T11:41:50;98034.59;;;20.01;54.40
11343;BME280;5726;42.160;24.746;2023-04-01T11:44:23;98014.06;;;20.52;51.53
11343;BME280;5726;42.160;24.746;2023-04-01T12:06:19;98007.00;;;20.03;54.51
11343;BME280;5726;42.160;24.746;2023-04-01T12:14:05;98012.72;;;19.73;56.81
11343;BME280;5726;42.160;24.746;2023-04-01T12:16:46;98004.91;;;19.65;56.72
11343;BME280;5726;42.160;24.746;2023-04-01T12:19:17;97984.19;;;19.33;57.91
11343;BME280;5726;42.160;24.746;2023-04-01T12:33:04;97933.16;;;20.14;56.22
11343;BME280;5726;42.160;24.746;2023-04-01T12:44:00;97927.66;;;19.83;57.49
11343;BME280;5726;42.160;24.746;2023-04-01T12:46:50;97918.34;;;19.81;57.79
11343;BME280;5726;42.160;24.746;2023-04-01T12:55:40;97922.59;;;19.75;57.84
11343;BME280;5726;42.160;24.746;2023-04-01T13:12:12;97893.50;;;20.10;56.20
11343;BME280;5726;42.160;24.746;2023-04-01T13:15:11;97892.75;;;20.06;55.61
11343;BME280;5726;42.160;24.746;2023-04-01T13:20:44;97909.06;;;20.20;53.58
11343;BME280;5726;42.160;24.746;2023-04-01T13:25:54;97889.47;;;19.42;55.30
11343;BME280;5726;42.160;24.746;2023-04-01T13:28:40;97908.50;;;19.35;55.93
11343;BME280;5726;42.160;24.746;2023-04-01T13:34:27;98013.00;;;18.37;59.16
11343;BME280;5726;42.160;24.746;2023-04-01T13:45:29;98032.53;;;17.77;62.66
11343;BME280;5726;42.160;24.746;2023-04-01T13:54:35;98094.72;;;17.38;67.41
11343;BME280;5726;42.160;24.746;2023-04-01T14:12:19;98161.00;;;16.74;81.38
11343;BME280;5726;42.160;24.746;2023-04-01T14:17:42;98167.22;;;16.77;80.27
11343;BME280;5726;42.160;24.746;2023-04-01T14:30:59;98143.22;;;16.98;75.02
11343;BME280;5726;42.160;24.746;2023-04-01T14:39:18;98127.31;;;17.19;74.83
11343;BME280;5726;42.160;24.746;2023-04-01T14:41:57;98126.78;;;17.10;75.46
11343;BME280;5726;42.160;24.746;2023-04-01T14:50:13;98119.00;;;17.09;81.53
11343;BME280;5726;42.160;24.746;2023-04-01T14:52:42;98110.63;;;16.91;79.24
11343;BME280;5726;42.160;24.746;2023-04-01T15:03:32;98105.88;;;16.63;88.01
11343;BME280;5726;42.160;24.746;2023-04-01T15:09:03;98095.94;;;16.48;89.91
11343;BME280;5726;42.160;24.746;2023-04-01T15:11:41;98094.28;;;16.62;91.78
11343;BME280;5726;42.160;24.746;2023-04-01T15:14:27;98102.88;;;16.68;88.66
11343;BME280;5726;42.160;24.746;2023-04-01T15:20:10;98097.41;;;16.64;88.52
11343;BME280;5726;42.160;24.746;2023-04-01T15:33:52;98083.31;;;16.33;85.95
11343;BME280;5726;42.160;24.746;2023-04-01T15:36:31;98072.09;;;16.12;86.38
11343;BME280;5726;42.160;24.746;2023-04-01T15:52:42;98072.81;;;16.28;89.20
11343;BME280;5726;42.160;24.746;2023-04-01T16:09:43;98094.03;;;16.07;90.61
11343;BME280;5726;42.160;24.746;2023-04-01T16:12:20;98101.19;;;16.19;88.84
11343;BME280;5726;42.160;24.746;2023-04-01T16:17:41;98114.72;;;16.19;90.35
11343;BME280;5726;42.160;24.746;2023-04-01T16:22:38;98136.00;;;16.20;89.33
11343;BME280;5726;42.160;24.746;2023-04-01T16:25:31;98143.47;;;16.27;88.90
11343;BME280;5726;42.160;24.746;2023-04-01T16:33:55;98141.97;;;16.10;85.99
11343;BME280;5726;42.160;24.746;2023-04-01T16:36:30;98147.88;;;15.97;86.94
11343;BME280;5726;42.160;24.746;2023-04-01T16:39:29;98156.41;;;15.99;86.48
11343;BME280;5726;42.160;24.746;2023-04-01T16:42:25;98164.75;;;15.90;86.04
11343;BME280;5726;42.160;24.746;2023-04-01T16:45:06;98168.28;;;15.76;83.72
11343;BME280;5726;42.160;24.746;2023-04-01T16:47:46;98178.38;;;15.78;84.02
11343;BME280;5726;42.160;24.746;2023-04-01T16:50:22;98173.53;;;15.69;85.95
11343;BME280;5726;42.160;24.746;2023-04-01T16:55:42;98161.38;;;15.44;89.47
11343;BME280;5726;42.160;24.746;2023-04-01T16:58:10;98161.06;;;15.30;92.58
11343;BME280;5726;42.160;24.746;2023-04-01T17:00:41;98149.25;;;15.19;95.49
11343;BME280;5726;42.160;24.746;2023-04-01T17:03:17;98137.41;;;15.08;97.92
11343;BME280;5726;42.160;24.746;2023-04-01T17:06:02;98134.19;;;15.18;98.21
11343;BME280;5726;42.160;24.746;2023-04-01T17:13:55;98101.66;;;15.30;98.53
11343;BME280;5726;42.160;24.746;2023-04-01T17:22:18;98120.41;;;15.57;96.57
11343;BME280;5726;42.160;24.746;2023-04-01T17:47:39;98263.31;;;15.47;94.60
11343;BME280;5726;42.160;24.746;2023-04-01T17:55:54;98301.16;;;14.62;97.32
11343;BME280;5726;42.160;24.746;2023-04-01T17:58:46;98299.81;;;14.56;87.31
11343;BME280;5726;42.160;24.746;2023-04-01T18:01:30;98313.91;;;14.49;83.83
11343;BME280;5726;42.160;24.746;2023-04-01T18:20:37;98377.28;;;14.82;74.76
11343;BME280;5726;42.160;24.746;2023-04-01T18:25:43;98367.31;;;14.83;75.48
11343;BME280;5726;42.160;24.746;2023-04-01T18:39:16;98361.50;;;14.96;75.06
11343;BME280;5726;42.160;24.746;2023-04-01T18:44:48;98375.38;;;14.44;76.24
11343;BME280;5726;42.160;24.746;2023-04-01T18:50:07;98384.75;;;14.23;77.40
11343;BME280;5726;42.160;24.746;2023-04-01T18:52:39;98389.72;;;14.09;79.64
11343;BME280;5726;42.160;24.746;2023-04-01T18:55:22;98391.59;;;14.20;79.04
11343;BME280;5726;42.160;24.746;2023-04-01T18:57:52;98392.50;;;14.12;79.28
11343;BME280;5726;42.160;24.746;2023-04-01T19:00:26;98400.56;;;13.88;79.72
11343;BME280;5726;42.160;24.746;2023-04-01T19:02:58;98413.03;;;13.93;80.01
11343;BME280;5726;42.160;24.746;2023-04-01T19:05:40;98413.59;;;13.98;78.70
11343;BME280;5726;42.160;24.746;2023-04-01T19:08:33;98409.88;;;13.79;78.10
11343;BME280;5726;42.160;24.746;2023-04-01T19:11:23;98408.63;;;13.77;77.79
11343;BME280;5726;42.160;24.746;2023-04-01T19:28:02;98425.09;;;14.07;77.38
11343;BME280;5726;42.160;24.746;2023-04-01T19:30:50;98425.38;;;13.94;78.43
11343;BME280;5726;42.160;24.746;2023-04-01T19:38:41;98423.81;;;13.93;78.87
11343;BME280;5726;42.160;24.746;2023-04-01T19:41:27;98428.63;;;13.99;77.84
11343;BME280;5726;42.160;24.746;2023-04-01T19:44:17;98423.81;;;13.93;78.07
11343;BME280;5726;42.160;24.746;2023-04-01T19:47:13;98434.56;;;13.81;78.25
11343;BME280;5726;42.160;24.746;2023-04-01T19:52:35;98435.78;;;13.72;78.37
11343;BME280;5726;42.160;24.746;2023-04-01T20:00:37;98441.47;;;13.46;80.39
11343;BME280;5726;42.160;24.746;2023-04-01T20:06:33;98445.66;;;13.68;78.89
11343;BME280;5726;42.160;24.746;2023-04-01T20:11:58;98475.59;;;13.34;81.32
11343;BME280;5726;42.160;24.746;2023-04-01T20:14:32;98488.34;;;13.45;80.39
11343;BME280;5726;42.160;24.746;2023-04-01T20:17:07;98483.00;;;13.57;79.57
11343;BME280;5726;42.160;24.746;2023-04-01T20:19:44;98494.66;;;13.49;79.74
11343;BME280;5726;42.160;24.746;2023-04-01T20:24:48;98504.47;;;13.66;76.90
11343;BME280;5726;42.160;24.746;2023-04-01T20:29:51;98498.94;;;13.62;75.34
11343;BME280;5726;42.160;24.746;2023-04-01T20:32:56;98507.13;;;13.13;77.80
11343;BME280;5726;42.160;24.746;2023-04-01T20:35:37;98503.06;;;13.07;78.00
11343;BME280;5726;42.160;24.746;2023-04-01T20:38:37;98505.75;;;13.28;75.82
11343;BME280;5726;42.160;24.746;2023-04-01T20:41:32;98516.72;;;13.02;75.76
11343;BME280;5726;42.160;24.746;2023-04-01T20:46:39;98525.25;;;13.04;74.87
11343;BME280;5726;42.160;24.746;2023-04-01T20:57:31;98530.00;;;12.79;76.31
11343;BME280;5726;42.160;24.746;2023-04-01T21:02:36;98523.78;;;12.29;79.02
11343;BME280;5726;42.160;24.746;2023-04-01T21:05:36;98538.25;;;12.45;78.62
11343;BME280;5726;42.160;24.746;2023-04-01T21:11:21;98516.25;;;12.14;80.97
11343;BME280;5726;42.160;24.746;2023-04-01T21:14:00;98527.72;;;12.32;79.46
11343;BME280;5726;42.160;24.746;2023-04-01T21:19:42;98530.56;;;12.35;78.60
11343;BME280;5726;42.160;24.746;2023-04-01T21:22:34;98548.28;;;12.28;79.22
11343;BME280;5726;42.160;24.746;2023-04-01T21:36:01;98557.78;;;12.25;78.81
11343;BME280;5726;42.160;24.746;2023-04-01T21:49:34;98571.69;;;12.27;78.98
11343;BME280;5726;42.160;24.746;2023-04-01T21:57:42;98568.06;;;12.60;76.62
11343;BME280;5726;42.160;24.746;2023-04-01T22:05:33;98576.47;;;12.59;77.31
11343;BME280;5726;42.160;24.746;2023-04-01T22:13:20;98595.63;;;12.49;77.56
11343;BME280;5726;42.160;24.746;2023-04-01T22:16:11;98599.97;;;12.33;78.81
11343;BME280;5726;42.160;24.746;2023-04-01T22:21:46;98588.72;;;12.40;78.85
11343;BME280;5726;42.160;24.746;2023-04-01T22:24:39;98592.66;;;12.42;78.55
11343;BME280;5726;42.160;24.746;2023-04-01T22:27:24;98594.44;;;12.30;79.28
11343;BME280;5726;42.160;24.746;2023-04-01T22:30:06;98588.16;;;12.17;81.18
11343;BME280;5726;42.160;24.746;2023-04-01T22:32:44;98586.38;;;12.38;79.84
11343;BME280;5726;42.160;24.746;2023-04-01T22:40:34;98578.09;;;12.43;78.51
11343;BME280;5726;42.160;24.746;2023-04-01T22:43:08;98572.72;;;12.43;78.12
11343;BME280;5726;42.160;24.746;2023-04-01T22:53:47;98592.84;;;12.29;76.99
11343;BME280;5726;42.160;24.746;2023-04-01T22:56:18;98593.81;;;12.24;76.83
11343;BME280;5726;42.160;24.746;2023-04-01T22:59:02;98597.78;;;12.18;77.71
11343;BME280;5726;42.160;24.746;2023-04-01T23:01:33;98596.03;;;12.31;76.07
11343;BME280;5726;42.160;24.746;2023-04-01T23:04:03;98596.16;;;12.34;75.48
11343;BME280;5726;42.160;24.746;2023-04-01T23:06:37;98611.78;;;12.40;74.25
11343;BME280;5726;42.160;24.746;2023-04-01T23:09:25;98623.16;;;12.46;73.28
11343;BME280;5726;42.160;24.746;2023-04-01T23:12:12;98614.03;;;12.30;74.45
11343;BME280;5726;42.160;24.746;2023-04-01T23:14:52;98611.22;;;12.27;75.46
11343;BME280;5726;42.160;24.746;2023-04-01T23:30:50;98619.53;;;12.42;72.86
11343;BME280;5726;42.160;24.746;2023-04-01T23:38:14;98616.13;;;12.16;74.18
11343;BME280;5726;42.160;24.746;2023-04-01T23:40:40;98611.78;;;11.87;75.60
11343;BME280;5726;42.160;24.746;2023-04-01T23:43:14;98612.25;;;11.80;76.00
11343;BME280;5726;42.160;24.746;2023-04-01T23:45:41;98611.63;;;11.58;77.43
11343;BME280;5726;42.160;24.746;2023-04-01T23:48:11;98595.06;;;11.73;76.35
11343;BME280;5726;42.160;24.746;2023-04-01T23:50:40;98596.00;;;11.60;76.77
11343;BME280;5726;42.160;24.746;2023-04-01T23:53:25;98591.56;;;11.72;75.56
11343;BME280;5726;42.160;24.746;2023-04-01T23:55:52;98591.41;;;11.60;75.74
11343;BME280;5726;42.160;24.746;2023-04-01T23:58:27;98605.28;;;11.45;76.70
